sensor_id;sensor_type;location;lat;lon;timestamp;temperature;humidity
57390;DHT22;43217;52.694;6.214;2024-02-21T00:00:18;9.50;99.90
57390;DHT22;43217;52.694;6.214;2024-02-21T00:02:43;9.50;99.90
57390;DHT22;43217;52.694;6.214;2024-02-21T00:05:09;9.50;99.90
57390;DHT22;43217;52.694;6.214;2024-02-21T00:07:35;9.50;99.90
57390;DHT22;43217;52.694;6.214;2024-02-21T00:10:00;9.40;99.90
57390;DHT22;43217;52.694;6.214;2024-02-21T00:12:26;9.50;99.90
57390;DHT22;43217;52.694;6.214;2024-02-21T00:14:51;9.50;99.90
57390;DHT22;43217;52.694;6.214;2024-02-21T00:17:17;9.40;99.90
57390;DHT22;43217;52.694;6.214;2024-02-21T00:19:42;9.40;99.90
57390;DHT22;43217;52.694;6.214;2024-02-21T00:22:08;9.40;99.90
57390;DHT22;43217;52.694;6.214;2024-02-21T00:24:34;9.50;99.90
57390;DHT22;43217;52.694;6.214;2024-02-21T00:26:59;9.40;99.90
57390;DHT22;43217;52.694;6.214;2024-02-21T00:29:25;9.40;99.90
57390;DHT22;43217;52.694;6.214;2024-02-21T00:31:51;9.40;99.90
57390;DHT22;43217;52.694;6.214;2024-02-21T00:34:16;9.40;99.90
57390;DHT22;43217;52.694;6.214;2024-02-21T00:36:42;9.40;99.90
57390;DHT22;43217;52.694;6.214;2024-02-21T00:39:07;9.40;99.90
57390;DHT22;43217;52.694;6.214;2024-02-21T00:41:33;9.40;99.90
57390;DHT22;43217;52.694;6.214;2024-02-21T00:43:59;9.40;99.90
57390;DHT22;43217;52.694;6.214;2024-02-21T00:46:24;9.40;99.90
57390;DHT22;43217;52.694;6.214;2024-02-21T00:48:50;9.40;99.90
57390;DHT22;43217;52.694;6.214;2024-02-21T00:51:16;9.30;99.90
57390;DHT22;43217;52.694;6.214;2024-02-21T00:53:42;9.40;99.90
57390;DHT22;43217;52.694;6.214;2024-02-21T00:56:08;9.30;99.90
57390;DHT22;43217;52.694;6.214;2024-02-21T00:58:34;9.30;99.90
57390;DHT22;43217;52.694;6.214;2024-02-21T01:01:00;9.30;99.90
57390;DHT22;43217;52.694;6.214;2024-02-21T01:03:26;9.30;99.90
57390;DHT22;43217;52.694;6.214;2024-02-21T01:05:52;9.30;99.90
57390;DHT22;43217;52.694;6.214;2024-02-21T01:08:17;9.30;99.90
57390;DHT22;43217;52.694;6.214;2024-02-21T01:10:43;9.30;99.90
57390;DHT22;43217;52.694;6.214;2024-02-21T01:13:09;9.30;99.90
57390;DHT22;43217;52.694;6.214;2024-02-21T01:15:34;9.30;99.90
57390;DHT22;43217;52.694;6.214;2024-02-21T01:18:01;9.20;99.90
57390;DHT22;43217;52.694;6.214;2024-02-21T01:20:26;9.20;99.90
57390;DHT22;43217;52.694;6.214;2024-02-21T01:22:52;9.20;99.90
57390;DHT22;43217;52.694;6.214;2024-02-21T01:25:18;9.20;99.90
57390;DHT22;43217;52.694;6.214;2024-02-21T01:27:43;9.20;99.90
57390;DHT22;43217;52.694;6.214;2024-02-21T01:30:09;9.20;99.90
57390;DHT22;43217;52.694;6.214;2024-02-21T01:32:36;9.20;99.90
57390;DHT22;43217;52.694;6.214;2024-02-21T01:35:02;9.20;99.90
57390;DHT22;43217;52.694;6.214;2024-02-21T01:37:27;9.20;99.90
57390;DHT22;43217;52.694;6.214;2024-02-21T01:39:55;9.20;99.90
57390;DHT22;43217;52.694;6.214;2024-02-21T01:42:24;9.20;99.90
57390;DHT22;43217;52.694;6.214;2024-02-21T01:44:49;9.30;99.90
57390;DHT22;43217;52.694;6.214;2024-02-21T01:47:15;9.30;99.90
57390;DHT22;43217;52.694;6.214;2024-02-21T01:49:41;9.30;99.90
57390;DHT22;43217;52.694;6.214;2024-02-21T01:52:07;9.30;99.90
57390;DHT22;43217;52.694;6.214;2024-02-21T01:54:33;9.30;99.90
57390;DHT22;43217;52.694;6.214;2024-02-21T01:56:59;9.30;99.90
57390;DHT22;43217;52.694;6.214;2024-02-21T01:59:25;9.30;99.90
57390;DHT22;43217;52.694;6.214;2024-02-21T02:01:51;9.30;99.90
57390;DHT22;43217;52.694;6.214;2024-02-21T02:04:19;9.30;99.90
57390;DHT22;43217;52.694;6.214;2024-02-21T02:06:45;9.30;99.90
57390;DHT22;43217;52.694;6.214;2024-02-21T02:09:11;9.20;99.90
57390;DHT22;43217;52.694;6.214;2024-02-21T02:11:37;9.20;99.90
57390;DHT22;43217;52.694;6.214;2024-02-21T02:14:03;9.20;99.90
57390;DHT22;43217;52.694;6.214;2024-02-21T02:16:28;9.10;99.90
57390;DHT22;43217;52.694;6.214;2024-02-21T02:18:54;9.10;99.90
57390;DHT22;43217;52.694;6.214;2024-02-21T02:21:40;9.10;99.90
57390;DHT22;43217;52.694;6.214;2024-02-21T02:24:08;9.10;99.90
57390;DHT22;43217;52.694;6.214;2024-02-21T02:26:34;9.10;99.90
57390;DHT22;43217;52.694;6.214;2024-02-21T02:29:01;9.00;99.90
57390;DHT22;43217;52.694;6.214;2024-02-21T02:31:27;9.00;99.90
57390;DHT22;43217;52.694;6.214;2024-02-21T02:33:53;9.00;99.90
57390;DHT22;43217;52.694;6.214;2024-02-21T02:36:19;9.00;99.90
57390;DHT22;43217;52.694;6.214;2024-02-21T02:38:44;9.00;99.90
57390;DHT22;43217;52.694;6.214;2024-02-21T02:41:10;9.10;99.90
57390;DHT22;43217;52.694;6.214;2024-02-21T02:43:36;9.10;99.90
57390;DHT22;43217;52.694;6.214;2024-02-21T02:46:02;9.10;99.90
57390;DHT22;43217;52.694;6.214;2024-02-21T02:48:29;9.10;99.90
57390;DHT22;43217;52.694;6.214;2024-02-21T02:50:54;9.10;99.90
57390;DHT22;43217;52.694;6.214;2024-02-21T02:53:20;9.10;99.90
57390;DHT22;43217;52.694;6.214;2024-02-21T02:55:46;9.10;99.90
57390;DHT22;43217;52.694;6.214;2024-02-21T02:58:11;9.10;99.90
57390;DHT22;43217;52.694;6.214;2024-02-21T03:00:37;9.00;99.90
57390;DHT22;43217;52.694;6.214;2024-02-21T03:03:04;9.00;99.90
57390;DHT22;43217;52.694;6.214;2024-02-21T03:05:30;9.00;99.90
57390;DHT22;43217;52.694;6.214;2024-02-21T03:07:56;9.00;99.90
57390;DHT22;43217;52.694;6.214;2024-02-21T03:10:21;9.00;99.90
57390;DHT22;43217;52.694;6.214;2024-02-21T03:12:47;9.00;99.90
57390;DHT22;43217;52.694;6.214;2024-02-21T03:15:13;9.00;99.90
57390;DHT22;43217;52.694;6.214;2024-02-21T03:17:39;9.00;99.90
57390;DHT22;43217;52.694;6.214;2024-02-21T03:20:05;9.00;99.90
57390;DHT22;43217;52.694;6.214;2024-02-21T03:22:34;9.00;99.90
57390;DHT22;43217;52.694;6.214;2024-02-21T03:25:00;9.00;99.90
57390;DHT22;43217;52.694;6.214;2024-02-21T03:27:25;9.00;99.90
57390;DHT22;43217;52.694;6.214;2024-02-21T03:29:51;9.00;99.90
57390;DHT22;43217;52.694;6.214;2024-02-21T03:32:16;9.00;99.90
57390;DHT22;43217;52.694;6.214;2024-02-21T03:34:42;9.00;99.90
57390;DHT22;43217;52.694;6.214;2024-02-21T03:37:08;9.00;99.90
57390;DHT22;43217;52.694;6.214;2024-02-21T03:39:33;9.00;99.90
57390;DHT22;43217;52.694;6.214;2024-02-21T03:41:59;9.00;99.90
57390;DHT22;43217;52.694;6.214;2024-02-21T03:44:30;9.00;99.90
57390;DHT22;43217;52.694;6.214;2024-02-21T03:46:56;9.00;99.90
57390;DHT22;43217;52.694;6.214;2024-02-21T03:49:22;9.00;99.90
57390;DHT22;43217;52.694;6.214;2024-02-21T03:51:48;9.00;99.90
57390;DHT22;43217;52.694;6.214;2024-02-21T03:54:13;9.00;99.90
57390;DHT22;43217;52.694;6.214;2024-02-21T03:56:39;9.00;99.90
57390;DHT22;43217;52.694;6.214;2024-02-21T03:59:07;9.00;99.90
57390;DHT22;43217;52.694;6.214;2024-02-21T04:01:34;9.00;99.90
57390;DHT22;43217;52.694;6.214;2024-02-21T04:04:00;9.00;99.90
57390;DHT22;43217;52.694;6.214;2024-02-21T04:06:25;9.00;99.90
57390;DHT22;43217;52.694;6.214;2024-02-21T04:08:51;9.10;99.90
57390;DHT22;43217;52.694;6.214;2024-02-21T04:11:17;9.10;99.90
57390;DHT22;43217;52.694;6.214;2024-02-21T04:13:44;9.10;99.90
57390;DHT22;43217;52.694;6.214;2024-02-21T04:16:10;9.10;99.90
57390;DHT22;43217;52.694;6.214;2024-02-21T04:18:36;9.10;99.90
57390;DHT22;43217;52.694;6.214;2024-02-21T04:21:01;9.10;99.90
57390;DHT22;43217;52.694;6.214;2024-02-21T04:23:27;9.10;99.90
57390;DHT22;43217;52.694;6.214;2024-02-21T04:25:53;9.10;99.90
57390;DHT22;43217;52.694;6.214;2024-02-21T04:28:18;9.10;99.90
57390;DHT22;43217;52.694;6.214;2024-02-21T04:30:44;9.10;99.90
57390;DHT22;43217;52.694;6.214;2024-02-21T04:33:09;9.10;99.90
57390;DHT22;43217;52.694;6.214;2024-02-21T04:35:38;9.10;99.90
57390;DHT22;43217;52.694;6.214;2024-02-21T04:38:05;9.10;99.90
57390;DHT22;43217;52.694;6.214;2024-02-21T04:40:30;9.10;99.90
57390;DHT22;43217;52.694;6.214;2024-02-21T04:42:57;9.10;99.90
57390;DHT22;43217;52.694;6.214;2024-02-21T04:45:22;9.10;99.90
57390;DHT22;43217;52.694;6.214;2024-02-21T04:47:48;9.10;99.90
57390;DHT22;43217;52.694;6.214;2024-02-21T04:50:14;9.10;99.90
57390;DHT22;43217;52.694;6.214;2024-02-21T04:52:40;9.10;99.90
57390;DHT22;43217;52.694;6.214;2024-02-21T04:55:05;9.10;99.90
57390;DHT22;43217;52.694;6.214;2024-02-21T04:57:31;9.10;99.90
57390;DHT22;43217;52.694;6.214;2024-02-21T04:59:57;9.10;99.90
57390;DHT22;43217;52.694;6.214;2024-02-21T05:02:22;9.20;99.90
57390;DHT22;43217;52.694;6.214;2024-02-21T05:04:50;9.20;99.90
57390;DHT22;43217;52.694;6.214;2024-02-21T05:07:16;9.10;99.90
57390;DHT22;43217;52.694;6.214;2024-02-21T05:09:44;9.10;99.90
57390;DHT22;43217;52.694;6.214;2024-02-21T05:12:10;9.10;99.90
57390;DHT22;43217;52.694;6.214;2024-02-21T05:14:36;9.20;99.90
57390;DHT22;43217;52.694;6.214;2024-02-21T05:17:01;9.10;99.90
57390;DHT22;43217;52.694;6.214;2024-02-21T05:19:27;9.10;99.90
57390;DHT22;43217;52.694;6.214;2024-02-21T05:21:52;9.10;99.90
57390;DHT22;43217;52.694;6.214;2024-02-21T05:24:18;9.10;99.90
57390;DHT22;43217;52.694;6.214;2024-02-21T05:26:43;9.10;99.90
57390;DHT22;43217;52.694;6.214;2024-02-21T05:29:09;9.10;99.90
57390;DHT22;43217;52.694;6.214;2024-02-21T05:34:19;9.10;99.90
57390;DHT22;43217;52.694;6.214;2024-02-21T05:36:45;9.10;99.90
57390;DHT22;43217;52.694;6.214;2024-02-21T05:39:12;9.10;99.90
57390;DHT22;43217;52.694;6.214;2024-02-21T05:41:37;9.10;99.90
57390;DHT22;43217;52.694;6.214;2024-02-21T05:44:03;9.10;99.90
57390;DHT22;43217;52.694;6.214;2024-02-21T05:46:32;9.10;99.90
57390;DHT22;43217;52.694;6.214;2024-02-21T05:48:57;9.10;99.90
57390;DHT22;43217;52.694;6.214;2024-02-21T05:51:23;9.10;99.90
57390;DHT22;43217;52.694;6.214;2024-02-21T05:53:48;9.10;99.90
57390;DHT22;43217;52.694;6.214;2024-02-21T05:56:15;9.10;99.90
57390;DHT22;43217;52.694;6.214;2024-02-21T05:58:40;9.10;99.90
57390;DHT22;43217;52.694;6.214;2024-02-21T06:01:07;9.10;99.90
57390;DHT22;43217;52.694;6.214;2024-02-21T06:03:33;9.10;99.90
57390;DHT22;43217;52.694;6.214;2024-02-21T06:06:02;9.10;99.90
57390;DHT22;43217;52.694;6.214;2024-02-21T06:08:28;9.10;99.90
57390;DHT22;43217;52.694;6.214;2024-02-21T06:10:54;9.10;99.90
57390;DHT22;43217;52.694;6.214;2024-02-21T06:13:29;9.10;99.90
57390;DHT22;43217;52.694;6.214;2024-02-21T06:15:54;9.10;99.90
57390;DHT22;43217;52.694;6.214;2024-02-21T06:18:20;9.00;99.90
57390;DHT22;43217;52.694;6.214;2024-02-21T06:20:46;9.10;99.90
57390;DHT22;43217;52.694;6.214;2024-02-21T06:23:16;9.10;99.90
57390;DHT22;43217;52.694;6.214;2024-02-21T06:25:42;9.10;99.90
57390;DHT22;43217;52.694;6.214;2024-02-21T06:28:08;9.10;99.90
57390;DHT22;43217;52.694;6.214;2024-02-21T06:30:34;9.10;99.90
57390;DHT22;43217;52.694;6.214;2024-02-21T06:32:59;9.10;99.90
57390;DHT22;43217;52.694;6.214;2024-02-21T06:35:25;9.10;99.90
57390;DHT22;43217;52.694;6.214;2024-02-21T06:37:51;9.10;99.90
57390;DHT22;43217;52.694;6.214;2024-02-21T06:40:19;9.10;99.90
57390;DHT22;43217;52.694;6.214;2024-02-21T06:42:45;9.10;99.90
57390;DHT22;43217;52.694;6.214;2024-02-21T06:45:10;9.10;99.90
57390;DHT22;43217;52.694;6.214;2024-02-21T06:47:36;9.00;99.90
57390;DHT22;43217;52.694;6.214;2024-02-21T06:50:02;9.10;99.90
57390;DHT22;43217;52.694;6.214;2024-02-21T06:52:28;9.10;99.90
57390;DHT22;43217;52.694;6.214;2024-02-21T06:54:53;9.10;99.90
57390;DHT22;43217;52.694;6.214;2024-02-21T06:57:19;9.10;99.90
57390;DHT22;43217;52.694;6.214;2024-02-21T06:59:44;9.10;99.90
57390;DHT22;43217;52.694;6.214;2024-02-21T07:02:10;9.10;99.90
57390;DHT22;43217;52.694;6.214;2024-02-21T07:04:35;9.10;99.90
57390;DHT22;43217;52.694;6.214;2024-02-21T07:07:01;9.00;99.90
57390;DHT22;43217;52.694;6.214;2024-02-21T07:09:27;9.00;99.90
57390;DHT22;43217;52.694;6.214;2024-02-21T07:11:54;9.00;99.90
57390;DHT22;43217;52.694;6.214;2024-02-21T07:14:19;9.00;99.90
57390;DHT22;43217;52.694;6.214;2024-02-21T07:16:45;9.00;99.90
57390;DHT22;43217;52.694;6.214;2024-02-21T07:19:11;9.00;99.90
57390;DHT22;43217;52.694;6.214;2024-02-21T07:21:36;9.00;99.90
57390;DHT22;43217;52.694;6.214;2024-02-21T07:24:06;9.00;99.90
57390;DHT22;43217;52.694;6.214;2024-02-21T07:26:33;9.00;99.90
57390;DHT22;43217;52.694;6.214;2024-02-21T07:28:58;9.00;99.90
57390;DHT22;43217;52.694;6.214;2024-02-21T07:31:24;9.00;99.90
57390;DHT22;43217;52.694;6.214;2024-02-21T07:33:50;9.00;99.90
57390;DHT22;43217;52.694;6.214;2024-02-21T07:36:16;9.00;99.90
57390;DHT22;43217;52.694;6.214;2024-02-21T07:38:49;9.00;99.90
57390;DHT22;43217;52.694;6.214;2024-02-21T07:41:15;9.00;99.90
57390;DHT22;43217;52.694;6.214;2024-02-21T07:43:41;9.10;99.90
57390;DHT22;43217;52.694;6.214;2024-02-21T07:46:06;9.10;99.90
57390;DHT22;43217;52.694;6.214;2024-02-21T07:48:32;9.00;99.90
57390;DHT22;43217;52.694;6.214;2024-02-21T07:50:58;9.00;99.90
57390;DHT22;43217;52.694;6.214;2024-02-21T07:53:23;9.00;99.90
57390;DHT22;43217;52.694;6.214;2024-02-21T07:55:49;9.10;99.90
57390;DHT22;43217;52.694;6.214;2024-02-21T07:58:15;9.00;99.90
57390;DHT22;43217;52.694;6.214;2024-02-21T08:00:40;9.00;99.90
57390;DHT22;43217;52.694;6.214;2024-02-21T08:03:06;9.00;99.90
57390;DHT22;43217;52.694;6.214;2024-02-21T08:05:34;9.00;99.90
57390;DHT22;43217;52.694;6.214;2024-02-21T08:08:00;9.00;99.90
57390;DHT22;43217;52.694;6.214;2024-02-21T08:10:25;9.00;99.90
57390;DHT22;43217;52.694;6.214;2024-02-21T08:12:51;9.10;99.90
57390;DHT22;43217;52.694;6.214;2024-02-21T08:15:16;9.00;99.90
57390;DHT22;43217;52.694;6.214;2024-02-21T08:17:42;9.00;99.90
57390;DHT22;43217;52.694;6.214;2024-02-21T08:20:09;9.10;99.90
57390;DHT22;43217;52.694;6.214;2024-02-21T08:22:37;9.10;99.90
57390;DHT22;43217;52.694;6.214;2024-02-21T08:25:03;9.10;99.90
57390;DHT22;43217;52.694;6.214;2024-02-21T08:27:30;9.10;99.90
57390;DHT22;43217;52.694;6.214;2024-02-21T08:29:56;9.10;99.90
57390;DHT22;43217;52.694;6.214;2024-02-21T08:32:22;9.10;99.90
57390;DHT22;43217;52.694;6.214;2024-02-21T08:34:47;9.10;99.90
57390;DHT22;43217;52.694;6.214;2024-02-21T08:37:13;9.10;99.90
57390;DHT22;43217;52.694;6.214;2024-02-21T08:39:38;9.20;99.90
57390;DHT22;43217;52.694;6.214;2024-02-21T08:42:05;9.20;99.90
57390;DHT22;43217;52.694;6.214;2024-02-21T08:44:30;9.20;99.90
57390;DHT22;43217;52.694;6.214;2024-02-21T08:46:56;9.20;99.90
57390;DHT22;43217;52.694;6.214;2024-02-21T08:49:22;9.20;99.90
57390;DHT22;43217;52.694;6.214;2024-02-21T08:51:47;9.20;99.90
57390;DHT22;43217;52.694;6.214;2024-02-21T08:54:13;9.20;99.90
57390;DHT22;43217;52.694;6.214;2024-02-21T08:56:39;9.20;99.90
57390;DHT22;43217;52.694;6.214;2024-02-21T08:59:04;9.20;99.90
57390;DHT22;43217;52.694;6.214;2024-02-21T09:01:30;9.30;99.90
57390;DHT22;43217;52.694;6.214;2024-02-21T09:03:55;9.30;99.90
57390;DHT22;43217;52.694;6.214;2024-02-21T09:06:22;9.30;99.90
57390;DHT22;43217;52.694;6.214;2024-02-21T09:08:48;9.30;99.90
57390;DHT22;43217;52.694;6.214;2024-02-21T09:11:14;9.40;99.90
57390;DHT22;43217;52.694;6.214;2024-02-21T09:13:40;9.40;99.90
57390;DHT22;43217;52.694;6.214;2024-02-21T09:16:06;9.40;99.90
57390;DHT22;43217;52.694;6.214;2024-02-21T09:18:31;9.40;99.90
57390;DHT22;43217;52.694;6.214;2024-02-21T09:20:57;9.40;99.90
57390;DHT22;43217;52.694;6.214;2024-02-21T09:23:26;9.40;99.90
57390;DHT22;43217;52.694;6.214;2024-02-21T09:25:52;9.50;99.90
57390;DHT22;43217;52.694;6.214;2024-02-21T09:28:17;9.50;99.90
57390;DHT22;43217;52.694;6.214;2024-02-21T09:30:44;9.50;99.90
57390;DHT22;43217;52.694;6.214;2024-02-21T09:33:09;9.60;99.90
57390;DHT22;43217;52.694;6.214;2024-02-21T09:35:35;9.60;99.90
57390;DHT22;43217;52.694;6.214;2024-02-21T09:38:01;9.60;99.90
57390;DHT22;43217;52.694;6.214;2024-02-21T09:40:28;9.60;99.90
57390;DHT22;43217;52.694;6.214;2024-02-21T09:43:03;9.60;99.90
57390;DHT22;43217;52.694;6.214;2024-02-21T09:45:33;9.70;99.90
57390;DHT22;43217;52.694;6.214;2024-02-21T09:48:33;9.70;99.90
57390;DHT22;43217;52.694;6.214;2024-02-21T09:51:01;9.80;99.90
57390;DHT22;43217;52.694;6.214;2024-02-21T09:53:27;9.70;99.90
57390;DHT22;43217;52.694;6.214;2024-02-21T09:55:53;9.70;99.90
57390;DHT22;43217;52.694;6.214;2024-02-21T09:58:20;9.70;99.90
57390;DHT22;43217;52.694;6.214;2024-02-21T10:00:46;9.60;99.90
57390;DHT22;43217;52.694;6.214;2024-02-21T10:03:12;9.60;99.90
57390;DHT22;43217;52.694;6.214;2024-02-21T10:05:45;9.60;99.90
57390;DHT22;43217;52.694;6.214;2024-02-21T10:08:14;9.60;99.90
57390;DHT22;43217;52.694;6.214;2024-02-21T10:10:44;9.60;99.90
57390;DHT22;43217;52.694;6.214;2024-02-21T10:13:11;9.70;99.90
57390;DHT22;43217;52.694;6.214;2024-02-21T10:15:47;9.70;99.90
57390;DHT22;43217;52.694;6.214;2024-02-21T10:18:17;9.70;99.90
57390;DHT22;43217;52.694;6.214;2024-02-21T10:20:43;9.70;99.90
57390;DHT22;43217;52.694;6.214;2024-02-21T10:23:09;9.70;99.90
57390;DHT22;43217;52.694;6.214;2024-02-21T10:25:35;9.80;99.90
57390;DHT22;43217;52.694;6.214;2024-02-21T10:28:04;9.80;99.90
57390;DHT22;43217;52.694;6.214;2024-02-21T10:30:29;9.80;99.90
57390;DHT22;43217;52.694;6.214;2024-02-21T10:32:55;9.80;99.90
57390;DHT22;43217;52.694;6.214;2024-02-21T10:35:32;9.80;99.90
57390;DHT22;43217;52.694;6.214;2024-02-21T10:37:58;9.80;99.90
57390;DHT22;43217;52.694;6.214;2024-02-21T10:40:25;9.80;99.90
57390;DHT22;43217;52.694;6.214;2024-02-21T10:42:57;9.80;99.90
57390;DHT22;43217;52.694;6.214;2024-02-21T10:45:31;9.80;99.90
57390;DHT22;43217;52.694;6.214;2024-02-21T10:48:06;9.80;99.90
57390;DHT22;43217;52.694;6.214;2024-02-21T10:50:40;9.90;99.90
57390;DHT22;43217;52.694;6.214;2024-02-21T10:55:58;9.90;99.90
57390;DHT22;43217;52.694;6.214;2024-02-21T10:58:26;9.90;99.90
57390;DHT22;43217;52.694;6.214;2024-02-21T11:00:54;9.90;99.90
57390;DHT22;43217;52.694;6.214;2024-02-21T11:03:20;9.90;99.90
57390;DHT22;43217;52.694;6.214;2024-02-21T11:05:46;10.00;99.90
57390;DHT22;43217;52.694;6.214;2024-02-21T11:08:12;10.00;99.90
57390;DHT22;43217;52.694;6.214;2024-02-21T11:10:38;9.90;99.90
57390;DHT22;43217;52.694;6.214;2024-02-21T11:13:09;9.90;99.90
57390;DHT22;43217;52.694;6.214;2024-02-21T11:15:35;9.90;99.90
57390;DHT22;43217;52.694;6.214;2024-02-21T11:18:01;9.90;99.90
57390;DHT22;43217;52.694;6.214;2024-02-21T11:20:37;9.90;99.90
57390;DHT22;43217;52.694;6.214;2024-02-21T11:23:03;9.80;99.90
57390;DHT22;43217;52.694;6.214;2024-02-21T11:25:29;9.80;99.90
57390;DHT22;43217;52.694;6.214;2024-02-21T11:28:00;9.80;99.90
57390;DHT22;43217;52.694;6.214;2024-02-21T11:30:32;9.80;99.90
57390;DHT22;43217;52.694;6.214;2024-02-21T11:33:06;9.80;99.90
57390;DHT22;43217;52.694;6.214;2024-02-21T11:35:33;9.90;99.90
57390;DHT22;43217;52.694;6.214;2024-02-21T11:38:12;9.80;99.90
57390;DHT22;43217;52.694;6.214;2024-02-21T11:40:44;9.80;99.90
57390;DHT22;43217;52.694;6.214;2024-02-21T11:43:10;9.80;99.90
57390;DHT22;43217;52.694;6.214;2024-02-21T11:45:35;9.80;99.90
57390;DHT22;43217;52.694;6.214;2024-02-21T11:48:02;9.90;99.90
57390;DHT22;43217;52.694;6.214;2024-02-21T11:50:29;9.90;99.90
57390;DHT22;43217;52.694;6.214;2024-02-21T11:52:56;9.90;99.90
57390;DHT22;43217;52.694;6.214;2024-02-21T11:55:24;9.90;99.90
57390;DHT22;43217;52.694;6.214;2024-02-21T11:57:50;9.90;99.90
57390;DHT22;43217;52.694;6.214;2024-02-21T12:00:19;9.90;99.90
57390;DHT22;43217;52.694;6.214;2024-02-21T12:02:46;9.90;99.90
57390;DHT22;43217;52.694;6.214;2024-02-21T12:05:12;9.80;99.90
57390;DHT22;43217;52.694;6.214;2024-02-21T12:07:38;9.80;99.90
57390;DHT22;43217;52.694;6.214;2024-02-21T12:10:10;9.90;99.90
57390;DHT22;43217;52.694;6.214;2024-02-21T12:12:37;9.90;99.90
57390;DHT22;43217;52.694;6.214;2024-02-21T12:15:04;9.90;99.90
57390;DHT22;43217;52.694;6.214;2024-02-21T12:17:33;9.90;99.90
57390;DHT22;43217;52.694;6.214;2024-02-21T12:20:01;9.90;99.90
57390;DHT22;43217;52.694;6.214;2024-02-21T12:22:29;9.90;99.90
57390;DHT22;43217;52.694;6.214;2024-02-21T12:24:58;9.80;99.90
57390;DHT22;43217;52.694;6.214;2024-02-21T12:27:23;9.80;99.90
57390;DHT22;43217;52.694;6.214;2024-02-21T12:29:50;9.90;99.90
57390;DHT22;43217;52.694;6.214;2024-02-21T12:32:16;9.80;99.90
57390;DHT22;43217;52.694;6.214;2024-02-21T12:34:41;9.90;99.90
57390;DHT22;43217;52.694;6.214;2024-02-21T12:37:07;9.90;99.90
57390;DHT22;43217;52.694;6.214;2024-02-21T12:39:32;9.90;99.90
57390;DHT22;43217;52.694;6.214;2024-02-21T12:41:58;10.00;99.90
57390;DHT22;43217;52.694;6.214;2024-02-21T12:44:24;10.00;99.90
57390;DHT22;43217;52.694;6.214;2024-02-21T12:46:49;10.00;99.90
57390;DHT22;43217;52.694;6.214;2024-02-21T12:49:19;10.00;99.90
57390;DHT22;43217;52.694;6.214;2024-02-21T12:51:45;10.00;99.90
57390;DHT22;43217;52.694;6.214;2024-02-21T12:54:13;10.10;99.90
57390;DHT22;43217;52.694;6.214;2024-02-21T12:56:39;10.10;99.90
57390;DHT22;43217;52.694;6.214;2024-02-21T12:59:07;10.10;99.90
57390;DHT22;43217;52.694;6.214;2024-02-21T13:01:35;10.00;99.90
57390;DHT22;43217;52.694;6.214;2024-02-21T13:04:01;10.00;99.90
57390;DHT22;43217;52.694;6.214;2024-02-21T13:06:27;10.00;99.90
57390;DHT22;43217;52.694;6.214;2024-02-21T13:08:53;10.00;99.90
57390;DHT22;43217;52.694;6.214;2024-02-21T13:11:19;10.00;99.90
57390;DHT22;43217;52.694;6.214;2024-02-21T13:13:44;10.10;99.90
57390;DHT22;43217;52.694;6.214;2024-02-21T13:16:10;10.20;99.90
57390;DHT22;43217;52.694;6.214;2024-02-21T13:18:36;10.20;99.90
57390;DHT22;43217;52.694;6.214;2024-02-21T13:21:04;10.20;99.90
57390;DHT22;43217;52.694;6.214;2024-02-21T13:23:30;10.30;99.90
57390;DHT22;43217;52.694;6.214;2024-02-21T13:25:55;10.20;99.90
57390;DHT22;43217;52.694;6.214;2024-02-21T13:28:21;10.20;99.90
57390;DHT22;43217;52.694;6.214;2024-02-21T13:30:46;10.10;99.90
57390;DHT22;43217;52.694;6.214;2024-02-21T13:33:13;10.10;99.90
57390;DHT22;43217;52.694;6.214;2024-02-21T13:35:39;10.10;99.90
57390;DHT22;43217;52.694;6.214;2024-02-21T13:38:04;10.10;99.90
57390;DHT22;43217;52.694;6.214;2024-02-21T13:40:30;10.10;99.90
57390;DHT22;43217;52.694;6.214;2024-02-21T13:42:56;10.10;99.90
57390;DHT22;43217;52.694;6.214;2024-02-21T13:45:21;10.10;99.90
57390;DHT22;43217;52.694;6.214;2024-02-21T13:47:47;10.10;99.90
57390;DHT22;43217;52.694;6.214;2024-02-21T13:50:13;10.10;99.90
57390;DHT22;43217;52.694;6.214;2024-02-21T13:52:40;10.10;99.90
57390;DHT22;43217;52.694;6.214;2024-02-21T13:55:05;10.10;99.90
57390;DHT22;43217;52.694;6.214;2024-02-21T13:57:34;10.10;99.90
57390;DHT22;43217;52.694;6.214;2024-02-21T14:00:00;10.10;99.90
57390;DHT22;43217;52.694;6.214;2024-02-21T14:02:26;10.00;99.90
57390;DHT22;43217;52.694;6.214;2024-02-21T14:04:51;10.00;99.90
57390;DHT22;43217;52.694;6.214;2024-02-21T14:07:17;10.00;99.90
57390;DHT22;43217;52.694;6.214;2024-02-21T14:09:42;10.00;99.90
57390;DHT22;43217;52.694;6.214;2024-02-21T14:12:08;10.00;99.90
57390;DHT22;43217;52.694;6.214;2024-02-21T14:14:35;10.00;99.90
57390;DHT22;43217;52.694;6.214;2024-02-21T14:17:02;10.00;99.90
57390;DHT22;43217;52.694;6.214;2024-02-21T14:19:29;10.00;99.90
57390;DHT22;43217;52.694;6.214;2024-02-21T14:21:54;10.00;99.90
57390;DHT22;43217;52.694;6.214;2024-02-21T14:24:20;10.00;99.90
57390;DHT22;43217;52.694;6.214;2024-02-21T14:26:45;10.00;99.90
57390;DHT22;43217;52.694;6.214;2024-02-21T14:29:11;10.00;99.90
57390;DHT22;43217;52.694;6.214;2024-02-21T14:31:38;9.90;99.90
57390;DHT22;43217;52.694;6.214;2024-02-21T14:34:03;9.90;99.90
57390;DHT22;43217;52.694;6.214;2024-02-21T14:36:29;9.90;99.90
57390;DHT22;43217;52.694;6.214;2024-02-21T14:38:54;9.90;99.90
57390;DHT22;43217;52.694;6.214;2024-02-21T14:41:20;9.90;99.90
57390;DHT22;43217;52.694;6.214;2024-02-21T14:43:46;9.90;99.90
57390;DHT22;43217;52.694;6.214;2024-02-21T14:46:12;9.90;99.90
57390;DHT22;43217;52.694;6.214;2024-02-21T14:48:38;9.90;99.90
57390;DHT22;43217;52.694;6.214;2024-02-21T14:51:04;9.90;99.90
57390;DHT22;43217;52.694;6.214;2024-02-21T14:53:30;9.90;99.90
57390;DHT22;43217;52.694;6.214;2024-02-21T14:55:56;9.90;99.90
57390;DHT22;43217;52.694;6.214;2024-02-21T14:58:23;9.90;99.90
57390;DHT22;43217;52.694;6.214;2024-02-21T15:00:49;9.90;99.90
57390;DHT22;43217;52.694;6.214;2024-02-21T15:03:16;9.90;99.90
57390;DHT22;43217;52.694;6.214;2024-02-21T15:05:45;9.90;99.90
57390;DHT22;43217;52.694;6.214;2024-02-21T15:08:11;9.90;99.90
57390;DHT22;43217;52.694;6.214;2024-02-21T15:10:37;9.90;99.90
57390;DHT22;43217;52.694;6.214;2024-02-21T15:13:03;9.80;99.90
57390;DHT22;43217;52.694;6.214;2024-02-21T15:15:29;9.90;99.90
57390;DHT22;43217;52.694;6.214;2024-02-21T15:17:55;9.90;99.90
57390;DHT22;43217;52.694;6.214;2024-02-21T15:20:20;9.90;99.90
57390;DHT22;43217;52.694;6.214;2024-02-21T15:22:46;9.90;99.90
57390;DHT22;43217;52.694;6.214;2024-02-21T15:25:12;9.90;99.90
57390;DHT22;43217;52.694;6.214;2024-02-21T15:27:44;9.90;99.90
57390;DHT22;43217;52.694;6.214;2024-02-21T15:30:14;9.90;99.90
57390;DHT22;43217;52.694;6.214;2024-02-21T15:32:40;9.90;99.90
57390;DHT22;43217;52.694;6.214;2024-02-21T15:35:08;9.90;99.90
57390;DHT22;43217;52.694;6.214;2024-02-21T15:37:34;9.90;99.90
57390;DHT22;43217;52.694;6.214;2024-02-21T15:40:00;9.90;99.90
57390;DHT22;43217;52.694;6.214;2024-02-21T15:42:26;9.90;99.90
57390;DHT22;43217;52.694;6.214;2024-02-21T15:44:52;9.90;99.90